sensor_id;sensor_type;location;lat;lon;timestamp;P1;durP1;ratioP1;P2;durP2;ratioP2
14789;SDS011;7486;51.010;10.366;2022-11-15T00:00:40;3.90;;;2.88;;
14789;SDS011;7486;51.010;10.366;2022-11-15T00:03:26;2.87;;;2.57;;
14789;SDS011;7486;51.010;10.366;2022-11-15T00:06:12;3.15;;;2.63;;
14789;SDS011;7486;51.010;10.366;2022-11-15T00:08:58;3.38;;;2.50;;
14789;SDS011;7486;51.010;10.366;2022-11-15T00:11:44;3.08;;;2.72;;
14789;SDS011;7486;51.010;10.366;2022-11-15T00:14:29;4.43;;;2.53;;
14789;SDS011;7486;51.010;10.366;2022-11-15T00:17:15;2.67;;;2.40;;
14789;SDS011;7486;51.010;10.366;2022-11-15T00:20:00;3.23;;;2.60;;
14789;SDS011;7486;51.010;10.366;2022-11-15T00:22:45;3.92;;;2.65;;
14789;SDS011;7486;51.010;10.366;2022-11-15T00:25:31;3.30;;;2.53;;
14789;SDS011;7486;51.010;10.366;2022-11-15T00:28:17;5.88;;;2.55;;
14789;SDS011;7486;51.010;10.366;2022-11-15T00:31:03;2.97;;;2.60;;
14789;SDS011;7486;51.010;10.366;2022-11-15T00:33:49;3.90;;;2.70;;
14789;SDS011;7486;51.010;10.366;2022-11-15T00:36:35;3.77;;;2.53;;
14789;SDS011;7486;51.010;10.366;2022-11-15T00:39:20;3.27;;;2.43;;
14789;SDS011;7486;51.010;10.366;2022-11-15T00:42:06;4.43;;;2.70;;
14789;SDS011;7486;51.010;10.366;2022-11-15T00:44:51;4.00;;;2.50;;
14789;SDS011;7486;51.010;10.366;2022-11-15T00:47:37;3.50;;;2.80;;
14789;SDS011;7486;51.010;10.366;2022-11-15T00:50:22;3.83;;;2.57;;
14789;SDS011;7486;51.010;10.366;2022-11-15T00:53:07;4.80;;;2.43;;
14789;SDS011;7486;51.010;10.366;2022-11-15T00:55:53;3.07;;;2.73;;
14789;SDS011;7486;51.010;10.366;2022-11-15T00:58:38;3.13;;;2.40;;
14789;SDS011;7486;51.010;10.366;2022-11-15T01:01:24;3.27;;;2.50;;
14789;SDS011;7486;51.010;10.366;2022-11-15T01:04:09;3.20;;;2.87;;
14789;SDS011;7486;51.010;10.366;2022-11-15T01:06:55;3.60;;;2.47;;
14789;SDS011;7486;51.010;10.366;2022-11-15T01:09:40;3.60;;;2.57;;
14789;SDS011;7486;51.010;10.366;2022-11-15T01:12:26;4.45;;;2.70;;
14789;SDS011;7486;51.010;10.366;2022-11-15T01:15:11;2.97;;;2.53;;
14789;SDS011;7486;51.010;10.366;2022-11-15T01:17:57;4.00;;;2.53;;
14789;SDS011;7486;51.010;10.366;2022-11-15T01:20:43;4.00;;;2.60;;
14789;SDS011;7486;51.010;10.366;2022-11-15T01:23:28;3.70;;;2.40;;
14789;SDS011;7486;51.010;10.366;2022-11-15T01:26:14;4.10;;;2.57;;
14789;SDS011;7486;51.010;10.366;2022-11-15T01:29:00;3.10;;;2.80;;
14789;SDS011;7486;51.010;10.366;2022-11-15T01:31:45;4.17;;;2.70;;
14789;SDS011;7486;51.010;10.366;2022-11-15T01:34:30;3.72;;;2.67;;
14789;SDS011;7486;51.010;10.366;2022-11-15T01:37:16;2.90;;;2.50;;
14789;SDS011;7486;51.010;10.366;2022-11-15T01:40:01;3.00;;;2.60;;
14789;SDS011;7486;51.010;10.366;2022-11-15T01:42:47;2.92;;;2.40;;
14789;SDS011;7486;51.010;10.366;2022-11-15T01:45:32;4.57;;;2.70;;
14789;SDS011;7486;51.010;10.366;2022-11-15T01:48:17;3.38;;;2.53;;
14789;SDS011;7486;51.010;10.366;2022-11-15T01:51:04;3.92;;;2.83;;
14789;SDS011;7486;51.010;10.366;2022-11-15T01:53:55;3.13;;;2.65;;
14789;SDS011;7486;51.010;10.366;2022-11-15T01:56:48;3.70;;;2.43;;
14789;SDS011;7486;51.010;10.366;2022-11-15T01:59:57;3.40;;;2.50;;
14789;SDS011;7486;51.010;10.366;2022-11-15T02:02:45;3.57;;;2.53;;
14789;SDS011;7486;51.010;10.366;2022-11-15T02:05:30;4.37;;;2.60;;
14789;SDS011;7486;51.010;10.366;2022-11-15T02:08:17;3.50;;;2.57;;
14789;SDS011;7486;51.010;10.366;2022-11-15T02:11:04;3.00;;;2.70;;
14789;SDS011;7486;51.010;10.366;2022-11-15T02:13:52;3.37;;;2.70;;
14789;SDS011;7486;51.010;10.366;2022-11-15T02:16:43;3.17;;;2.70;;
14789;SDS011;7486;51.010;10.366;2022-11-15T02:22:39;5.40;;;2.70;;
14789;SDS011;7486;51.010;10.366;2022-11-15T02:41:15;4.83;;;2.80;;
14789;SDS011;7486;51.010;10.366;2022-11-15T02:44:53;4.53;;;2.70;;
14789;SDS011;7486;51.010;10.366;2022-11-15T02:47:20;3.73;;;3.10;;
14789;SDS011;7486;51.010;10.366;2022-11-15T02:50:08;4.27;;;2.57;;
14789;SDS011;7486;51.010;10.366;2022-11-15T02:52:57;3.17;;;2.87;;
14789;SDS011;7486;51.010;10.366;2022-11-15T02:55:46;3.10;;;2.80;;
14789;SDS011;7486;51.010;10.366;2022-11-15T02:58:44;4.60;;;2.93;;
14789;SDS011;7486;51.010;10.366;2022-11-15T03:08:11;3.37;;;2.80;;
14789;SDS011;7486;51.010;10.366;2022-11-15T03:14:16;2.93;;;2.40;;
14789;SDS011;7486;51.010;10.366;2022-11-15T03:20:07;3.07;;;2.77;;
14789;SDS011;7486;51.010;10.366;2022-11-15T03:22:55;4.40;;;2.90;;
14789;SDS011;7486;51.010;10.366;2022-11-15T03:25:46;3.27;;;2.97;;
14789;SDS011;7486;51.010;10.366;2022-11-15T03:28:40;3.50;;;3.20;;
14789;SDS011;7486;51.010;10.366;2022-11-15T03:31:32;5.07;;;3.10;;
14789;SDS011;7486;51.010;10.366;2022-11-15T03:37:31;3.03;;;2.70;;
14789;SDS011;7486;51.010;10.366;2022-11-15T03:40:22;3.07;;;2.70;;
14789;SDS011;7486;51.010;10.366;2022-11-15T03:46:14;3.73;;;2.90;;
14789;SDS011;7486;51.010;10.366;2022-11-15T03:49:10;3.33;;;2.93;;
14789;SDS011;7486;51.010;10.366;2022-11-15T03:52:09;3.40;;;2.97;;
14789;SDS011;7486;51.010;10.366;2022-11-15T03:54:56;3.83;;;3.20;;
14789;SDS011;7486;51.010;10.366;2022-11-15T03:57:41;4.07;;;3.20;;
14789;SDS011;7486;51.010;10.366;2022-11-15T04:00:27;4.07;;;3.23;;
14789;SDS011;7486;51.010;10.366;2022-11-15T04:03:13;3.97;;;3.37;;
14789;SDS011;7486;51.010;10.366;2022-11-15T04:05:59;3.57;;;3.27;;
14789;SDS011;7486;51.010;10.366;2022-11-15T04:08:44;4.20;;;3.10;;
14789;SDS011;7486;51.010;10.366;2022-11-15T04:11:30;3.70;;;3.30;;
14789;SDS011;7486;51.010;10.366;2022-11-15T04:14:16;5.07;;;3.30;;
14789;SDS011;7486;51.010;10.366;2022-11-15T04:17:01;3.97;;;3.50;;
14789;SDS011;7486;51.010;10.366;2022-11-15T04:19:47;4.67;;;3.53;;
14789;SDS011;7486;51.010;10.366;2022-11-15T04:22:32;4.57;;;3.40;;
14789;SDS011;7486;51.010;10.366;2022-11-15T04:25:17;4.33;;;3.13;;
14789;SDS011;7486;51.010;10.366;2022-11-15T04:28:08;6.43;;;3.63;;
14789;SDS011;7486;51.010;10.366;2022-11-15T04:30:53;3.70;;;3.30;;
14789;SDS011;7486;51.010;10.366;2022-11-15T04:33:38;4.23;;;3.50;;
14789;SDS011;7486;51.010;10.366;2022-11-15T04:36:23;3.67;;;3.27;;
14789;SDS011;7486;51.010;10.366;2022-11-15T04:39:09;3.77;;;3.23;;
14789;SDS011;7486;51.010;10.366;2022-11-15T04:41:54;4.37;;;2.77;;
14789;SDS011;7486;51.010;10.366;2022-11-15T04:44:39;5.20;;;2.83;;
14789;SDS011;7486;51.010;10.366;2022-11-15T04:47:25;4.83;;;3.57;;
14789;SDS011;7486;51.010;10.366;2022-11-15T04:50:10;5.23;;;3.57;;
14789;SDS011;7486;51.010;10.366;2022-11-15T04:52:56;4.30;;;3.43;;
14789;SDS011;7486;51.010;10.366;2022-11-15T04:55:43;5.17;;;3.50;;
14789;SDS011;7486;51.010;10.366;2022-11-15T04:58:30;3.93;;;3.30;;
14789;SDS011;7486;51.010;10.366;2022-11-15T05:01:15;6.23;;;4.00;;
14789;SDS011;7486;51.010;10.366;2022-11-15T05:04:00;5.63;;;3.73;;
14789;SDS011;7486;51.010;10.366;2022-11-15T05:06:49;4.00;;;3.50;;
14789;SDS011;7486;51.010;10.366;2022-11-15T05:09:35;3.83;;;3.33;;
14789;SDS011;7486;51.010;10.366;2022-11-15T05:12:21;6.70;;;3.40;;
14789;SDS011;7486;51.010;10.366;2022-11-15T05:15:06;3.87;;;3.40;;
14789;SDS011;7486;51.010;10.366;2022-11-15T05:17:56;4.77;;;3.30;;
14789;SDS011;7486;51.010;10.366;2022-11-15T05:20:42;4.20;;;3.37;;
14789;SDS011;7486;51.010;10.366;2022-11-15T05:23:28;3.73;;;3.30;;
14789;SDS011;7486;51.010;10.366;2022-11-15T05:26:15;4.93;;;3.57;;
14789;SDS011;7486;51.010;10.366;2022-11-15T05:29:02;4.93;;;3.53;;
14789;SDS011;7486;51.010;10.366;2022-11-15T05:31:47;4.63;;;3.47;;
14789;SDS011;7486;51.010;10.366;2022-11-15T05:34:32;5.67;;;3.80;;
14789;SDS011;7486;51.010;10.366;2022-11-15T05:37:18;5.57;;;3.63;;
14789;SDS011;7486;51.010;10.366;2022-11-15T05:40:03;3.80;;;3.40;;
14789;SDS011;7486;51.010;10.366;2022-11-15T05:42:49;3.87;;;3.23;;
14789;SDS011;7486;51.010;10.366;2022-11-15T05:45:35;4.33;;;3.60;;
14789;SDS011;7486;51.010;10.366;2022-11-15T05:48:21;3.40;;;3.10;;
14789;SDS011;7486;51.010;10.366;2022-11-15T05:51:06;4.97;;;3.40;;
14789;SDS011;7486;51.010;10.366;2022-11-15T05:53:52;5.33;;;3.93;;
14789;SDS011;7486;51.010;10.366;2022-11-15T05:56:40;5.90;;;4.23;;
14789;SDS011;7486;51.010;10.366;2022-11-15T05:59:25;5.30;;;4.17;;
14789;SDS011;7486;51.010;10.366;2022-11-15T06:02:15;3.93;;;3.37;;
14789;SDS011;7486;51.010;10.366;2022-11-15T06:05:00;3.80;;;3.40;;
14789;SDS011;7486;51.010;10.366;2022-11-15T06:07:46;5.43;;;3.90;;
14789;SDS011;7486;51.010;10.366;2022-11-15T06:10:31;3.93;;;3.40;;
14789;SDS011;7486;51.010;10.366;2022-11-15T06:13:17;3.97;;;3.50;;
14789;SDS011;7486;51.010;10.366;2022-11-15T06:16:03;5.63;;;4.33;;
14789;SDS011;7486;51.010;10.366;2022-11-15T06:18:49;4.90;;;4.10;;
14789;SDS011;7486;51.010;10.366;2022-11-15T06:21:34;5.23;;;3.90;;
14789;SDS011;7486;51.010;10.366;2022-11-15T06:24:20;4.53;;;3.67;;
14789;SDS011;7486;51.010;10.366;2022-11-15T06:27:05;5.23;;;4.20;;
14789;SDS011;7486;51.010;10.366;2022-11-15T06:29:51;5.30;;;4.20;;
14789;SDS011;7486;51.010;10.366;2022-11-15T06:32:36;8.50;;;4.60;;
14789;SDS011;7486;51.010;10.366;2022-11-15T06:35:22;6.83;;;4.30;;
14789;SDS011;7486;51.010;10.366;2022-11-15T06:38:08;5.37;;;4.47;;
14789;SDS011;7486;51.010;10.366;2022-11-15T06:40:55;6.03;;;4.03;;
14789;SDS011;7486;51.010;10.366;2022-11-15T06:43:47;5.80;;;4.50;;
14789;SDS011;7486;51.010;10.366;2022-11-15T06:46:32;5.10;;;4.23;;
14789;SDS011;7486;51.010;10.366;2022-11-15T06:49:18;6.60;;;4.10;;
14789;SDS011;7486;51.010;10.366;2022-11-15T06:52:06;5.07;;;4.23;;
14789;SDS011;7486;51.010;10.366;2022-11-15T06:54:52;5.90;;;4.03;;
14789;SDS011;7486;51.010;10.366;2022-11-15T06:57:42;4.80;;;3.83;;
14789;SDS011;7486;51.010;10.366;2022-11-15T07:00:32;5.90;;;4.27;;
14789;SDS011;7486;51.010;10.366;2022-11-15T07:03:17;5.77;;;3.90;;
14789;SDS011;7486;51.010;10.366;2022-11-15T07:06:03;4.83;;;3.80;;
14789;SDS011;7486;51.010;10.366;2022-11-15T07:08:52;5.90;;;4.00;;
14789;SDS011;7486;51.010;10.366;2022-11-15T07:11:37;4.60;;;4.10;;
14789;SDS011;7486;51.010;10.366;2022-11-15T07:14:23;5.93;;;4.67;;
14789;SDS011;7486;51.010;10.366;2022-11-15T07:17:08;5.77;;;4.30;;
14789;SDS011;7486;51.010;10.366;2022-11-15T07:19:54;5.20;;;3.80;;
14789;SDS011;7486;51.010;10.366;2022-11-15T07:22:40;4.70;;;3.83;;
14789;SDS011;7486;51.010;10.366;2022-11-15T07:25:25;5.87;;;3.83;;
14789;SDS011;7486;51.010;10.366;2022-11-15T07:28:10;4.50;;;3.70;;
14789;SDS011;7486;51.010;10.366;2022-11-15T07:30:56;5.07;;;3.80;;
14789;SDS011;7486;51.010;10.366;2022-11-15T07:33:41;4.80;;;3.57;;
14789;SDS011;7486;51.010;10.366;2022-11-15T07:36:27;5.50;;;3.90;;
14789;SDS011;7486;51.010;10.366;2022-11-15T07:39:12;6.07;;;3.80;;
14789;SDS011;7486;51.010;10.366;2022-11-15T07:41:58;5.27;;;3.50;;
14789;SDS011;7486;51.010;10.366;2022-11-15T07:44:44;5.00;;;3.37;;
14789;SDS011;7486;51.010;10.366;2022-11-15T07:47:30;5.00;;;3.67;;
14789;SDS011;7486;51.010;10.366;2022-11-15T07:50:15;6.47;;;4.63;;
14789;SDS011;7486;51.010;10.366;2022-11-15T07:53:01;7.87;;;4.37;;
14789;SDS011;7486;51.010;10.366;2022-11-15T07:55:47;5.20;;;4.37;;
14789;SDS011;7486;51.010;10.366;2022-11-15T07:58:33;6.03;;;3.97;;
14789;SDS011;7486;51.010;10.366;2022-11-15T08:01:18;5.70;;;3.80;;
14789;SDS011;7486;51.010;10.366;2022-11-15T08:04:03;4.87;;;4.37;;
14789;SDS011;7486;51.010;10.366;2022-11-15T08:06:49;4.37;;;3.80;;
14789;SDS011;7486;51.010;10.366;2022-11-15T08:09:34;5.73;;;3.70;;
14789;SDS011;7486;51.010;10.366;2022-11-15T08:12:19;6.27;;;4.13;;
14789;SDS011;7486;51.010;10.366;2022-11-15T08:15:05;4.63;;;3.73;;
14789;SDS011;7486;51.010;10.366;2022-11-15T08:17:54;4.43;;;3.77;;
14789;SDS011;7486;51.010;10.366;2022-11-15T08:20:44;5.47;;;3.80;;
14789;SDS011;7486;51.010;10.366;2022-11-15T08:23:29;5.10;;;3.50;;
14789;SDS011;7486;51.010;10.366;2022-11-15T08:26:15;4.13;;;3.30;;
14789;SDS011;7486;51.010;10.366;2022-11-15T08:29:02;4.50;;;3.70;;
14789;SDS011;7486;51.010;10.366;2022-11-15T08:31:47;4.70;;;4.07;;
14789;SDS011;7486;51.010;10.366;2022-11-15T08:34:33;5.40;;;4.30;;
14789;SDS011;7486;51.010;10.366;2022-11-15T08:37:18;5.80;;;4.47;;
14789;SDS011;7486;51.010;10.366;2022-11-15T08:40:04;5.40;;;4.30;;
14789;SDS011;7486;51.010;10.366;2022-11-15T08:42:50;4.53;;;3.77;;
14789;SDS011;7486;51.010;10.366;2022-11-15T08:45:35;6.00;;;5.10;;
14789;SDS011;7486;51.010;10.366;2022-11-15T08:48:21;5.13;;;3.70;;
14789;SDS011;7486;51.010;10.366;2022-11-15T08:51:06;6.83;;;4.20;;
14789;SDS011;7486;51.010;10.366;2022-11-15T08:53:52;6.50;;;4.00;;
14789;SDS011;7486;51.010;10.366;2022-11-15T08:56:37;7.67;;;4.13;;
14789;SDS011;7486;51.010;10.366;2022-11-15T08:59:22;6.80;;;4.13;;
14789;SDS011;7486;51.010;10.366;2022-11-15T09:02:12;4.97;;;3.73;;
14789;SDS011;7486;51.010;10.366;2022-11-15T09:04:58;6.60;;;4.20;;
14789;SDS011;7486;51.010;10.366;2022-11-15T09:07:43;6.67;;;4.40;;
14789;SDS011;7486;51.010;10.366;2022-11-15T09:10:28;5.47;;;4.17;;
14789;SDS011;7486;51.010;10.366;2022-11-15T09:13:14;5.50;;;4.23;;
14789;SDS011;7486;51.010;10.366;2022-11-15T09:16:00;7.13;;;4.30;;
14789;SDS011;7486;51.010;10.366;2022-11-15T09:18:46;4.83;;;4.07;;
14789;SDS011;7486;51.010;10.366;2022-11-15T09:21:32;5.27;;;3.63;;
14789;SDS011;7486;51.010;10.366;2022-11-15T09:24:17;4.20;;;3.60;;
14789;SDS011;7486;51.010;10.366;2022-11-15T09:27:03;5.07;;;3.40;;
14789;SDS011;7486;51.010;10.366;2022-11-15T09:30:06;4.83;;;3.53;;
14789;SDS011;7486;51.010;10.366;2022-11-15T09:32:52;4.23;;;3.60;;
14789;SDS011;7486;51.010;10.366;2022-11-15T09:35:37;3.63;;;3.30;;
14789;SDS011;7486;51.010;10.366;2022-11-15T09:38:23;3.67;;;3.27;;
14789;SDS011;7486;51.010;10.366;2022-11-15T09:41:19;5.03;;;3.57;;
14789;SDS011;7486;51.010;10.366;2022-11-15T09:50:59;5.00;;;3.15;;
14789;SDS011;7486;51.010;10.366;2022-11-15T09:53:43;3.92;;;3.20;;
14789;SDS011;7486;51.010;10.366;2022-11-15T09:56:53;3.22;;;2.90;;
14789;SDS011;7486;51.010;10.366;2022-11-15T10:05:19;3.78;;;2.70;;
14789;SDS011;7486;51.010;10.366;2022-11-15T10:08:03;3.92;;;2.70;;
14789;SDS011;7486;51.010;10.366;2022-11-15T10:13:00;4.32;;;3.05;;
14789;SDS011;7486;51.010;10.366;2022-11-15T10:15:27;4.18;;;2.65;;
14789;SDS011;7486;51.010;10.366;2022-11-15T10:18:04;3.42;;;2.90;;
14789;SDS011;7486;51.010;10.366;2022-11-15T10:20:54;2.80;;;2.50;;
14789;SDS011;7486;51.010;10.366;2022-11-15T10:23:25;2.95;;;2.40;;
14789;SDS011;7486;51.010;10.366;2022-11-15T10:25:55;4.40;;;2.80;;
14789;SDS011;7486;51.010;10.366;2022-11-15T10:28:31;3.13;;;2.47;;
14789;SDS011;7486;51.010;10.366;2022-11-15T10:30:59;6.90;;;3.42;;
14789;SDS011;7486;51.010;10.366;2022-11-15T10:33:36;4.18;;;2.95;;
14789;SDS011;7486;51.010;10.366;2022-11-15T10:41:15;4.55;;;2.80;;
14789;SDS011;7486;51.010;10.366;2022-11-15T10:44:08;3.42;;;2.97;;
14789;SDS011;7486;51.010;10.366;2022-11-15T10:46:40;5.30;;;2.70;;
14789;SDS011;7486;51.010;10.366;2022-11-15T10:57:00;3.22;;;2.65;;
14789;SDS011;7486;51.010;10.366;2022-11-15T10:59:32;3.55;;;2.97;;
14789;SDS011;7486;51.010;10.366;2022-11-15T11:02:39;3.83;;;2.70;;
14789;SDS011;7486;51.010;10.366;2022-11-15T11:05:06;3.17;;;2.40;;
14789;SDS011;7486;51.010;10.366;2022-11-15T11:07:56;3.58;;;2.50;;
14789;SDS011;7486;51.010;10.366;2022-11-15T11:10:29;3.25;;;2.53;;
14789;SDS011;7486;51.010;10.366;2022-11-15T11:30:39;2.95;;;2.28;;
14789;SDS011;7486;51.010;10.366;2022-11-15T11:33:48;4.35;;;2.40;;
14789;SDS011;7486;51.010;10.366;2022-11-15T11:36:27;2.38;;;2.17;;
14789;SDS011;7486;51.010;10.366;2022-11-15T11:39:21;3.25;;;2.25;;
14789;SDS011;7486;51.010;10.366;2022-11-15T11:44:59;2.45;;;2.25;;
14789;SDS011;7486;51.010;10.366;2022-11-15T11:47:47;4.88;;;2.30;;
14789;SDS011;7486;51.010;10.366;2022-11-15T11:50:22;2.75;;;2.13;;
14789;SDS011;7486;51.010;10.366;2022-11-15T11:53:12;2.83;;;1.80;;
14789;SDS011;7486;51.010;10.366;2022-11-15T11:55:49;2.10;;;1.85;;
14789;SDS011;7486;51.010;10.366;2022-11-15T11:58:20;2.60;;;2.03;;
14789;SDS011;7486;51.010;10.366;2022-11-15T12:03:52;3.60;;;2.08;;
14789;SDS011;7486;51.010;10.366;2022-11-15T12:06:41;2.60;;;1.88;;
14789;SDS011;7486;51.010;10.366;2022-11-15T12:09:21;3.47;;;1.92;;
14789;SDS011;7486;51.010;10.366;2022-11-15T12:12:20;3.03;;;1.70;;
14789;SDS011;7486;51.010;10.366;2022-11-15T12:17:30;2.22;;;1.73;;
14789;SDS011;7486;51.010;10.366;2022-11-15T12:20:02;2.78;;;1.70;;
14789;SDS011;7486;51.010;10.366;2022-11-15T12:34:16;4.07;;;1.90;;
14789;SDS011;7486;51.010;10.366;2022-11-15T12:36:55;2.53;;;1.73;;
14789;SDS011;7486;51.010;10.366;2022-11-15T12:40:03;1.90;;;1.70;;
14789;SDS011;7486;51.010;10.366;2022-11-15T12:44:56;1.60;;;1.50;;
14789;SDS011;7486;51.010;10.366;2022-11-15T12:47:25;2.83;;;1.52;;
14789;SDS011;7486;51.010;10.366;2022-11-15T12:49:53;2.38;;;1.65;;
14789;SDS011;7486;51.010;10.366;2022-11-15T12:52:20;2.20;;;1.52;;
14789;SDS011;7486;51.010;10.366;2022-11-15T12:54:51;1.75;;;1.60;;
14789;SDS011;7486;51.010;10.366;2022-11-15T12:59:56;1.63;;;1.52;;
14789;SDS011;7486;51.010;10.366;2022-11-15T13:12:55;2.10;;;1.70;;
14789;SDS011;7486;51.010;10.366;2022-11-15T13:18:42;1.52;;;1.42;;
14789;SDS011;7486;51.010;10.366;2022-11-15T13:21:18;2.95;;;1.67;;
14789;SDS011;7486;51.010;10.366;2022-11-15T13:23:53;4.45;;;1.80;;
14789;SDS011;7486;51.010;10.366;2022-11-15T13:26:20;3.15;;;1.77;;
14789;SDS011;7486;51.010;10.366;2022-11-15T13:28:48;2.97;;;1.73;;
14789;SDS011;7486;51.010;10.366;2022-11-15T13:34:01;1.90;;;1.70;;
14789;SDS011;7486;51.010;10.366;2022-11-15T13:37:00;2.15;;;1.80;;
14789;SDS011;7486;51.010;10.366;2022-11-15T13:39:30;2.45;;;1.90;;
14789;SDS011;7486;51.010;10.366;2022-11-15T13:41:59;4.00;;;1.63;;
14789;SDS011;7486;51.010;10.366;2022-11-15T13:44:27;2.45;;;1.92;;
14789;SDS011;7486;51.010;10.366;2022-11-15T13:49:30;2.17;;;1.60;;
14789;SDS011;7486;51.010;10.366;2022-11-15T13:51:58;4.03;;;2.00;;
14789;SDS011;7486;51.010;10.366;2022-11-15T13:57:02;2.85;;;1.90;;
14789;SDS011;7486;51.010;10.366;2022-11-15T13:59:45;1.90;;;1.73;;
14789;SDS011;7486;51.010;10.366;2022-11-15T14:02:18;2.03;;;1.85;;
14789;SDS011;7486;51.010;10.366;2022-11-15T14:04:49;2.85;;;2.10;;
14789;SDS011;7486;51.010;10.366;2022-11-15T14:07:20;1.67;;;1.42;;
14789;SDS011;7486;51.010;10.366;2022-11-15T14:09:49;3.53;;;2.00;;
14789;SDS011;7486;51.010;10.366;2022-11-15T14:12:32;2.85;;;2.05;;
14789;SDS011;7486;51.010;10.366;2022-11-15T14:15:02;3.15;;;2.20;;
14789;SDS011;7486;51.010;10.366;2022-11-15T14:17:45;2.55;;;2.28;;
14789;SDS011;7486;51.010;10.366;2022-11-15T14:20:19;4.40;;;2.40;;
14789;SDS011;7486;51.010;10.366;2022-11-15T14:22:53;3.35;;;2.60;;
14789;SDS011;7486;51.010;10.366;2022-11-15T14:25:28;2.55;;;2.10;;
14789;SDS011;7486;51.010;10.366;2022-11-15T14:30:45;2.90;;;2.00;;
14789;SDS011;7486;51.010;10.366;2022-11-15T14:33:17;2.17;;;1.90;;
14789;SDS011;7486;51.010;10.366;2022-11-15T14:36:03;2.80;;;2.20;;
14789;SDS011;7486;51.010;10.366;2022-11-15T14:38:32;2.20;;;2.00;;
14789;SDS011;7486;51.010;10.366;2022-11-15T14:41:00;2.70;;;1.92;;
14789;SDS011;7486;51.010;10.366;2022-11-15T14:43:27;2.67;;;1.90;;
14789;SDS011;7486;51.010;10.366;2022-11-15T14:45:53;2.75;;;2.00;;
14789;SDS011;7486;51.010;10.366;2022-11-15T14:48:20;1.88;;;1.70;;
14789;SDS011;7486;51.010;10.366;2022-11-15T14:50:47;2.35;;;1.90;;
14789;SDS011;7486;51.010;10.366;2022-11-15T14:53:14;2.47;;;1.90;;
14789;SDS011;7486;51.010;10.366;2022-11-15T14:55:42;2.83;;;2.15;;
14789;SDS011;7486;51.010;10.366;2022-11-15T14:58:10;2.20;;;2.00;;
14789;SDS011;7486;51.010;10.366;2022-11-15T15:00:38;2.03;;;1.83;;
14789;SDS011;7486;51.010;10.366;2022-11-15T15:03:06;2.10;;;1.80;;
14789;SDS011;7486;51.010;10.366;2022-11-15T15:08:05;2.60;;;1.80;;
14789;SDS011;7486;51.010;10.366;2022-11-15T15:10:37;2.25;;;1.70;;
14789;SDS011;7486;51.010;10.366;2022-11-15T15:13:16;2.10;;;1.90;;
14789;SDS011;7486;51.010;10.366;2022-11-15T15:15:47;2.28;;;1.80;;
14789;SDS011;7486;51.010;10.366;2022-11-15T15:18:15;1.88;;;1.77;;
14789;SDS011;7486;51.010;10.366;2022-11-15T15:20:42;2.55;;;2.10;;
14789;SDS011;7486;51.010;10.366;2022-11-15T15:23:14;2.08;;;1.88;;
14789;SDS011;7486;51.010;10.366;2022-11-15T15:25:43;2.97;;;2.08;;
14789;SDS011;7486;51.010;10.366;2022-11-15T15:28:10;2.00;;;1.80;;
14789;SDS011;7486;51.010;10.366;2022-11-15T15:30:38;3.40;;;1.80;;
14789;SDS011;7486;51.010;10.366;2022-11-15T15:33:04;3.70;;;1.90;;
14789;SDS011;7486;51.010;10.366;2022-11-15T15:35:32;2.30;;;1.85;;
14789;SDS011;7486;51.010;10.366;2022-11-15T15:38:00;3.25;;;1.80;;
14789;SDS011;7486;51.010;10.366;2022-11-15T15:40:28;2.67;;;2.00;;
14789;SDS011;7486;51.010;10.366;2022-11-15T15:42:57;3.28;;;2.05;;
14789;SDS011;7486;51.010;10.366;2022-11-15T15:45:24;2.55;;;2.00;;
14789;SDS011;7486;51.010;10.366;2022-11-15T15:47:52;3.83;;;2.35;;
14789;SDS011;7486;51.010;10.366;2022-11-15T15:52:58;2.90;;;2.33;;
14789;SDS011;7486;51.010;10.366;2022-11-15T15:55:26;2.53;;;2.10;;
14789;SDS011;7486;51.010;10.366;2022-11-15T15:57:54;2.60;;;2.30;;
14789;SDS011;7486;51.010;10.366;2022-11-15T16:00:21;3.60;;;2.42;;
14789;SDS011;7486;51.010;10.366;2022-11-15T16:02:50;6.93;;;2.78;;
14789;SDS011;7486;51.010;10.366;2022-11-15T16:05:17;4.60;;;2.83;;
14789;SDS011;7486;51.010;10.366;2022-11-15T16:07:44;6.60;;;3.00;;
14789;SDS011;7486;51.010;10.366;2022-11-15T16:12:52;3.58;;;2.80;;
14789;SDS011;7486;51.010;10.366;2022-11-15T16:15:19;2.85;;;2.55;;
14789;SDS011;7486;51.010;10.366;2022-11-15T16:17:52;4.30;;;2.63;;
14789;SDS011;7486;51.010;10.366;2022-11-15T16:20:34;5.80;;;3.00;;
14789;SDS011;7486;51.010;10.366;2022-11-15T16:23:06;5.85;;;2.75;;
14789;SDS011;7486;51.010;10.366;2022-11-15T16:25:56;4.43;;;2.65;;
14789;SDS011;7486;51.010;10.366;2022-11-15T16:28:23;5.03;;;2.30;;
14789;SDS011;7486;51.010;10.366;2022-11-15T16:31:04;3.63;;;2.55;;
14789;SDS011;7486;51.010;10.366;2022-11-15T16:33:38;2.65;;;2.45;;
14789;SDS011;7486;51.010;10.366;2022-11-15T16:36:18;4.22;;;2.60;;
14789;SDS011;7486;51.010;10.366;2022-11-15T16:38:55;3.17;;;2.55;;
14789;SDS011;7486;51.010;10.366;2022-11-15T16:41:22;3.63;;;2.25;;
14789;SDS011;7486;51.010;10.366;2022-11-15T16:43:49;3.80;;;2.50;;
14789;SDS011;7486;51.010;10.366;2022-11-15T16:46:20;2.58;;;2.33;;
14789;SDS011;7486;51.010;10.366;2022-11-15T16:48:50;2.63;;;2.38;;
14789;SDS011;7486;51.010;10.366;2022-11-15T16:51:17;3.40;;;2.67;;
14789;SDS011;7486;51.010;10.366;2022-11-15T16:53:43;3.13;;;2.80;;
14789;SDS011;7486;51.010;10.366;2022-11-15T16:56:21;3.33;;;2.55;;
14789;SDS011;7486;51.010;10.366;2022-11-15T16:58:50;2.35;;;2.15;;
14789;SDS011;7486;51.010;10.366;2022-11-15T17:01:19;2.67;;;2.38;;
14789;SDS011;7486;51.010;10.366;2022-11-15T17:03:49;2.67;;;2.30;;
14789;SDS011;7486;51.010;10.366;2022-11-15T17:06:16;2.83;;;2.30;;
14789;SDS011;7486;51.010;10.366;2022-11-15T17:08:44;2.80;;;2.30;;
14789;SDS011;7486;51.010;10.366;2022-11-15T17:11:15;2.50;;;2.28;;
14789;SDS011;7486;51.010;10.366;2022-11-15T17:13:44;2.47;;;2.28;;
14789;SDS011;7486;51.010;10.366;2022-11-15T17:16:14;2.53;;;2.33;;
14789;SDS011;7486;51.010;10.366;2022-11-15T17:18:43;2.65;;;2.45;;
14789;SDS011;7486;51.010;10.366;2022-11-15T17:21:13;2.78;;;2.38;;
14789;SDS011;7486;51.010;10.366;2022-11-15T17:23:42;2.70;;;2.33;;
14789;SDS011;7486;51.010;10.366;2022-11-15T17:26:09;3.15;;;2.30;;
14789;SDS011;7486;51.010;10.366;2022-11-15T17:28:55;2.70;;;2.50;;
14789;SDS011;7486;51.010;10.366;2022-11-15T17:31:22;3.42;;;2.25;;
14789;SDS011;7486;51.010;10.366;2022-11-15T17:33:49;2.35;;;2.15;;
14789;SDS011;7486;51.010;10.366;2022-11-15T17:36:15;2.20;;;2.00;;
14789;SDS011;7486;51.010;10.366;2022-11-15T17:38:42;2.45;;;2.25;;
14789;SDS011;7486;51.010;10.366;2022-11-15T17:41:13;2.40;;;2.20;;
14789;SDS011;7486;51.010;10.366;2022-11-15T17:43:41;2.85;;;2.50;;
14789;SDS011;7486;51.010;10.366;2022-11-15T17:46:11;2.30;;;2.10;;
14789;SDS011;7486;51.010;10.366;2022-11-15T17:48:43;2.30;;;2.10;;
14789;SDS011;7486;51.010;10.366;2022-11-15T17:51:12;2.30;;;2.10;;
14789;SDS011;7486;51.010;10.366;2022-11-15T17:53:40;3.17;;;2.40;;
14789;SDS011;7486;51.010;10.366;2022-11-15T17:56:09;2.40;;;2.20;;
14789;SDS011;7486;51.010;10.366;2022-11-15T17:58:37;3.13;;;2.53;;
14789;SDS011;7486;51.010;10.366;2022-11-15T18:01:08;2.97;;;2.30;;
14789;SDS011;7486;51.010;10.366;2022-11-15T18:03:35;2.50;;;2.30;;
14789;SDS011;7486;51.010;10.366;2022-11-15T18:06:03;3.97;;;2.53;;
14789;SDS011;7486;51.010;10.366;2022-11-15T18:08:31;2.78;;;2.40;;
14789;SDS011;7486;51.010;10.366;2022-11-15T18:11:03;2.85;;;2.63;;
14789;SDS011;7486;51.010;10.366;2022-11-15T18:13:35;2.75;;;2.15;;
14789;SDS011;7486;51.010;10.366;2022-11-15T18:16:03;3.10;;;2.40;;
14789;SDS011;7486;51.010;10.366;2022-11-15T18:18:32;2.20;;;2.00;;
14789;SDS011;7486;51.010;10.366;2022-11-15T18:23:36;2.60;;;2.15;;
14789;SDS011;7486;51.010;10.366;2022-11-15T18:26:04;3.35;;;2.20;;
14789;SDS011;7486;51.010;10.366;2022-11-15T18:28:34;2.75;;;2.20;;
14789;SDS011;7486;51.010;10.366;2022-11-15T18:31:03;2.97;;;2.10;;